createdAt,value
2019-04-30T00:00:39.996Z,7.3
2019-04-30T00:01:40.001Z,7.2
2019-04-30T00:02:40.166Z,7.1
2019-04-30T00:03:40.065Z,7.1
2019-04-30T00:04:40.450Z,7
2019-04-30T00:05:40.070Z,6.9
2019-04-30T00:06:40.135Z,6.9
2019-04-30T00:07:40.144Z,6.9
2019-04-30T00:08:40.171Z,6.8
2019-04-30T00:09:40.155Z,6.9
2019-04-30T00:10:41.437Z,6.9
2019-04-30T00:11:40.211Z,6.9
2019-04-30T00:12:40.246Z,7.1
2019-04-30T00:13:40.234Z,6.8
2019-04-30T00:14:41.289Z,6.6
2019-04-30T00:15:40.313Z,6.5
2019-04-30T00:16:40.310Z,6.4
2019-04-30T00:17:40.322Z,6.3
2019-04-30T00:18:53.224Z,6.3
2019-04-30T00:19:40.378Z,6.2
2019-04-30T00:20:40.532Z,6.2
2019-04-30T00:21:40.386Z,6.2
2019-04-30T00:22:46.949Z,6.2
2019-04-30T00:23:40.400Z,6.2
2019-04-30T00:24:44.729Z,6.2
2019-04-30T00:25:40.404Z,6.1
2019-04-30T00:26:44.914Z,6.1
2019-04-30T00:27:40.450Z,6.2
2019-04-30T00:28:44.285Z,6.1
2019-04-30T00:29:40.454Z,6.1
2019-04-30T00:30:43.863Z,6.1
2019-04-30T00:31:40.443Z,6.1
2019-04-30T00:32:43.541Z,6.1
2019-04-30T00:33:40.470Z,6.1
2019-04-30T00:34:40.497Z,6.1
2019-04-30T00:35:40.475Z,6.1
2019-04-30T00:36:40.484Z,6.1
2019-04-30T00:37:40.503Z,6
2019-04-30T00:38:40.489Z,5.9
2019-04-30T00:39:44.068Z,5.8
2019-04-30T00:40:40.485Z,5.8
2019-04-30T00:41:43.974Z,5.7
2019-04-30T00:43:00.088Z,5.7
2019-04-30T00:43:46.327Z,5.6
2019-04-30T00:44:40.699Z,5.6
2019-04-30T00:45:44.639Z,5.6
2019-04-30T00:46:40.837Z,5.5
2019-04-30T00:47:44.363Z,5.5
2019-04-30T00:48:40.948Z,5.5
2019-04-30T00:49:40.995Z,5.4
2019-04-30T00:50:41.065Z,5.5
2019-04-30T00:51:41.125Z,5.5
2019-04-30T00:52:41.185Z,5.5
2019-04-30T00:53:43.761Z,5.5
2019-04-30T00:54:41.329Z,5.5
2019-04-30T00:55:44.831Z,5.5
2019-04-30T00:56:41.397Z,5.4
2019-04-30T00:57:43.526Z,5.4
2019-04-30T00:58:41.507Z,5.3
2019-04-30T00:59:44.504Z,5.3
2019-04-30T01:00:41.532Z,5.2
2019-04-30T01:01:43.467Z,5.2
2019-04-30T01:02:41.564Z,5.2
2019-04-30T01:03:44.290Z,5.2
2019-04-30T01:04:41.631Z,5.1
2019-04-30T01:05:44.403Z,5.1
2019-04-30T01:06:41.660Z,5.1
2019-04-30T01:07:48.496Z,5
2019-04-30T01:08:41.762Z,5
2019-04-30T01:09:44.450Z,4.9
2019-04-30T01:10:41.833Z,5
2019-04-30T01:11:44.671Z,5
2019-04-30T01:12:47.004Z,5
2019-04-30T01:13:49.866Z,4.9
2019-04-30T01:14:41.980Z,5
2019-04-30T01:15:43.859Z,4.9
2019-04-30T01:16:42.034Z,4.8
2019-04-30T01:17:45.269Z,4.8
2019-04-30T01:18:42.067Z,4.8
2019-04-30T01:19:45.861Z,4.8
2019-04-30T01:20:42.162Z,4.8
2019-04-30T01:21:46.902Z,4.8
2019-04-30T01:22:42.187Z,4.8
2019-04-30T01:23:48.908Z,4.8
2019-04-30T01:24:42.235Z,4.8
2019-04-30T01:25:43.083Z,4.7
2019-04-30T01:26:42.366Z,4.6
2019-04-30T01:27:45.524Z,4.6
2019-04-30T01:28:42.408Z,4.6
2019-04-30T01:29:44.327Z,4.5
2019-04-30T01:30:42.447Z,4.5
2019-04-30T01:31:42.459Z,4.5
2019-04-30T01:32:42.496Z,4.5
2019-04-30T01:33:42.512Z,4.4
2019-04-30T01:34:44.116Z,4.4
2019-04-30T01:35:42.559Z,4.3
2019-04-30T01:36:43.399Z,4.2
2019-04-30T01:37:42.677Z,4.4
2019-04-30T01:38:44.733Z,4.4
2019-04-30T01:39:42.659Z,4.4
2019-04-30T01:40:46.958Z,4.4
2019-04-30T01:41:42.704Z,4.3
2019-04-30T01:42:47.875Z,4.3
2019-04-30T01:43:42.760Z,4.3
2019-04-30T01:44:43.386Z,4.2
2019-04-30T01:45:42.794Z,4.2
2019-04-30T01:46:43.168Z,4.2
2019-04-30T01:47:42.909Z,4.2
2019-04-30T01:48:43.521Z,4.1
2019-04-30T01:49:44.806Z,4.1
2019-04-30T01:50:42.969Z,4.1
2019-04-30T01:51:42.989Z,4.1
2019-04-30T01:52:43.105Z,4.1
2019-04-30T01:53:45.255Z,4.1
2019-04-30T01:54:43.015Z,4.1
2019-04-30T01:55:43.042Z,4.1
2019-04-30T01:56:43.036Z,4.1
2019-04-30T01:57:43.056Z,4
2019-04-30T01:58:43.080Z,4
2019-04-30T01:59:43.109Z,4
2019-04-30T02:00:43.119Z,4
2019-04-30T02:01:43.143Z,4
2019-04-30T02:02:43.153Z,4
2019-04-30T02:03:43.218Z,3.9
2019-04-30T02:04:43.201Z,3.9
2019-04-30T02:05:43.235Z,3.8
2019-04-30T02:06:43.361Z,3.9
2019-04-30T02:07:45.857Z,3.8
2019-04-30T02:08:43.281Z,3.8
2019-04-30T02:09:43.343Z,3.8
2019-04-30T02:10:43.418Z,3.8
2019-04-30T02:11:43.371Z,3.8
2019-04-30T02:12:43.414Z,3.7
2019-04-30T02:13:43.395Z,3.7
2019-04-30T02:14:43.402Z,3.6
2019-04-30T02:15:43.413Z,3.6
2019-04-30T02:16:43.444Z,3.6
2019-04-30T02:17:43.462Z,3.6
2019-04-30T02:18:43.557Z,3.6
2019-04-30T02:19:54.043Z,3.5
2019-04-30T02:20:43.473Z,3.5
2019-04-30T02:21:43.588Z,3.5
2019-04-30T02:22:43.524Z,3.5
2019-04-30T02:23:43.522Z,3.5
2019-04-30T02:24:43.527Z,3.5
2019-04-30T02:25:46.038Z,3.5
2019-04-30T02:26:43.537Z,3.5
2019-04-30T02:27:43.538Z,3.5
2019-04-30T02:28:43.517Z,3.5
2019-04-30T02:29:43.802Z,3.5
2019-04-30T02:30:43.571Z,3.5
2019-04-30T02:31:43.606Z,3.4
2019-04-30T02:32:43.711Z,3.4
2019-04-30T02:33:43.773Z,3.4
2019-04-30T02:34:44.291Z,3.4
2019-04-30T02:35:43.838Z,3.4
2019-04-30T02:36:43.900Z,3.4
2019-04-30T02:37:43.955Z,3.4
2019-04-30T02:38:44.024Z,3.4
2019-04-30T02:39:44.093Z,3.4
2019-04-30T02:40:44.093Z,3.4
2019-04-30T02:41:44.176Z,3.4
2019-04-30T02:42:44.253Z,3.4
2019-04-30T02:43:44.287Z,3.4
2019-04-30T02:44:44.375Z,3.5
2019-04-30T02:45:44.406Z,3.5
2019-04-30T02:46:44.462Z,3.5
2019-04-30T02:47:44.508Z,3.6
2019-04-30T02:48:44.516Z,3.6
2019-04-30T02:49:44.594Z,3.7
2019-04-30T02:50:44.836Z,3.7
2019-04-30T02:51:44.660Z,3.8
2019-04-30T02:52:44.680Z,3.9
2019-04-30T02:53:44.690Z,3.8
2019-04-30T02:54:44.677Z,3.7
2019-04-30T02:55:44.760Z,3.6
2019-04-30T02:56:44.828Z,3.7
2019-04-30T02:57:44.866Z,3.5
2019-04-30T02:58:44.954Z,3.5
2019-04-30T02:59:45.008Z,3.5
2019-04-30T03:00:44.993Z,3.6
2019-04-30T03:01:45.035Z,3.6
2019-04-30T03:02:45.068Z,3.5
2019-04-30T03:03:45.406Z,3.5
2019-04-30T03:04:45.182Z,3.4
2019-04-30T03:05:45.306Z,3.5
2019-04-30T03:06:45.278Z,3.4
2019-04-30T03:07:45.330Z,3.3
2019-04-30T03:08:45.366Z,3.2
2019-04-30T03:09:45.429Z,3.1
2019-04-30T03:10:45.453Z,3
2019-04-30T03:11:45.518Z,3
2019-04-30T03:12:45.533Z,3.1
2019-04-30T03:13:45.589Z,3.1
2019-04-30T03:14:45.643Z,3.1
2019-04-30T03:15:45.678Z,3
2019-04-30T03:16:45.698Z,3
2019-04-30T03:17:45.755Z,2.9
2019-04-30T03:18:45.794Z,2.9
2019-04-30T03:19:45.818Z,2.9
2019-04-30T03:20:45.863Z,2.9
2019-04-30T03:21:45.911Z,3
2019-04-30T03:22:46.030Z,3
2019-04-30T03:23:45.966Z,3
2019-04-30T03:24:46.017Z,3.1
2019-04-30T03:25:46.036Z,3
2019-04-30T03:26:46.078Z,3
2019-04-30T03:27:46.140Z,3
2019-04-30T03:28:46.134Z,3
2019-04-30T03:29:50.206Z,3
2019-04-30T03:30:46.183Z,2.9
2019-04-30T03:31:46.199Z,2.9
2019-04-30T03:32:52.037Z,2.9
2019-04-30T03:33:46.227Z,2.8
2019-04-30T03:34:46.345Z,2.9
2019-04-30T03:35:47.547Z,2.9
2019-04-30T03:36:46.313Z,2.9
2019-04-30T03:37:46.428Z,2.9
2019-04-30T03:38:46.375Z,2.9
2019-04-30T03:39:46.387Z,2.9
2019-04-30T03:40:46.423Z,2.9
2019-04-30T03:41:46.446Z,2.8
2019-04-30T03:42:49.276Z,2.8
2019-04-30T03:43:46.463Z,2.8
2019-04-30T03:44:49.347Z,2.8
2019-04-30T03:45:46.520Z,2.8
2019-04-30T03:46:49.588Z,2.8
2019-04-30T03:47:46.564Z,2.8
2019-04-30T03:48:46.619Z,3
2019-04-30T03:49:46.614Z,3
2019-04-30T03:50:53.104Z,3.1
2019-04-30T03:51:46.624Z,3.2
2019-04-30T03:52:46.636Z,3.2
2019-04-30T03:53:49.566Z,3.2
2019-04-30T03:54:49.272Z,3.3
2019-04-30T03:55:46.661Z,3.3
2019-04-30T03:56:49.794Z,3.3
2019-04-30T03:57:49.335Z,3.3
2019-04-30T03:58:46.709Z,3.3
2019-04-30T03:59:49.762Z,3.3
2019-04-30T04:00:46.820Z,3.4
2019-04-30T04:01:49.609Z,3.4
2019-04-30T04:02:46.767Z,3.4
2019-04-30T04:03:46.768Z,3.4
2019-04-30T04:04:49.412Z,3.5
2019-04-30T04:05:46.795Z,3.5
2019-04-30T04:06:49.008Z,3.6
2019-04-30T04:07:49.829Z,3.6
2019-04-30T04:08:49.004Z,3.7
2019-04-30T04:09:49.316Z,3.7
2019-04-30T04:10:46.813Z,3.8
2019-04-30T04:11:46.786Z,3.7
2019-04-30T04:12:49.592Z,3.7
2019-04-30T04:13:49.406Z,3.7
2019-04-30T04:14:46.937Z,3.8
2019-04-30T04:15:49.717Z,3.9
2019-04-30T04:16:47.065Z,3.9
2019-04-30T04:17:47.078Z,3.9
2019-04-30T04:18:49.784Z,3.9
2019-04-30T04:19:49.415Z,3.9
2019-04-30T04:20:50.158Z,3.9
2019-04-30T04:21:47.307Z,3.9
2019-04-30T04:22:49.441Z,4
2019-04-30T04:23:49.263Z,4
2019-04-30T04:24:50.045Z,4
2019-04-30T04:25:49.785Z,4.1
2019-04-30T04:26:50.130Z,4.1
2019-04-30T04:27:47.559Z,4
2019-04-30T04:28:49.577Z,4.1
2019-04-30T04:29:50.543Z,4.2
2019-04-30T04:30:50.450Z,4.2
2019-04-30T04:31:50.023Z,4.2
2019-04-30T04:32:50.009Z,4.2
2019-04-30T04:33:49.523Z,4.1
2019-04-30T04:34:50.030Z,4.1
2019-04-30T04:35:49.750Z,4.1
2019-04-30T04:36:50.434Z,4.1
2019-04-30T04:37:49.364Z,4.1
2019-04-30T04:38:50.529Z,4.2
2019-04-30T04:39:49.988Z,4.2
2019-04-30T04:40:50.149Z,4.1
2019-04-30T04:41:50.205Z,4
2019-04-30T04:42:49.213Z,4
2019-04-30T04:43:50.285Z,4.1
2019-04-30T04:44:50.073Z,4.1
2019-04-30T04:45:49.713Z,4.1
2019-04-30T04:46:50.266Z,4.1
2019-04-30T04:47:50.310Z,4.1
2019-04-30T04:48:49.313Z,4.2
2019-04-30T04:49:50.666Z,4.1
2019-04-30T04:50:50.030Z,4.1
2019-04-30T04:51:50.762Z,4.1
2019-04-30T04:52:49.520Z,4.2
2019-04-30T04:53:49.983Z,4.2
2019-04-30T04:54:50.532Z,4.2
2019-04-30T04:55:49.849Z,4.1
2019-04-30T04:56:50.374Z,4.2
2019-04-30T04:57:50.001Z,4.3
2019-04-30T04:58:50.136Z,4.3
2019-04-30T04:59:49.834Z,4.3
2019-04-30T05:00:49.426Z,4.2
2019-04-30T05:01:48.995Z,4.2
2019-04-30T05:02:49.729Z,4.2
2019-04-30T05:03:49.057Z,4.3
2019-04-30T05:04:49.210Z,4.3
2019-04-30T05:05:49.890Z,4.3
2019-04-30T05:06:49.752Z,4.3
2019-04-30T05:07:48.934Z,4.2
2019-04-30T05:08:49.295Z,4.2
2019-04-30T05:09:49.046Z,4.3
2019-04-30T05:10:49.463Z,4.2
2019-04-30T05:11:49.097Z,4.3
2019-04-30T05:12:50.917Z,4.3
2019-04-30T05:13:49.203Z,4.4
2019-04-30T05:14:49.243Z,4.6
2019-04-30T05:15:51.502Z,4.6
2019-04-30T05:16:49.325Z,4.7
2019-04-30T05:17:49.563Z,4.6
2019-04-30T05:18:49.419Z,4.7
2019-04-30T05:19:49.401Z,4.7
2019-04-30T05:20:49.413Z,4.6
2019-04-30T05:21:51.660Z,4.5
2019-04-30T05:22:49.457Z,4.4
2019-04-30T05:23:49.446Z,4.4
2019-04-30T05:24:49.475Z,4.4
2019-04-30T05:25:49.545Z,4.6
2019-04-30T05:26:49.533Z,4.6
2019-04-30T05:27:49.557Z,4.6
2019-04-30T05:28:52.741Z,4.6
2019-04-30T05:29:49.929Z,4.6
2019-04-30T05:30:49.624Z,4.6
2019-04-30T05:31:49.665Z,4.5
2019-04-30T05:32:50.820Z,4.5
2019-04-30T05:33:49.685Z,4.5
2019-04-30T05:34:49.804Z,4.5
2019-04-30T05:35:49.744Z,4.6
2019-04-30T05:36:49.752Z,4.6
2019-04-30T05:37:49.789Z,4.6
2019-04-30T05:38:49.795Z,4.7
2019-04-30T05:39:49.826Z,4.6
2019-04-30T05:40:49.847Z,4.6
2019-04-30T05:41:49.858Z,4.6
2019-04-30T05:42:49.895Z,4.6
2019-04-30T05:43:49.901Z,4.7
2019-04-30T05:44:49.952Z,4.7
2019-04-30T05:45:49.954Z,4.6
2019-04-30T05:46:50.019Z,4.6
2019-04-30T05:47:50.512Z,4.7
2019-04-30T05:48:50.006Z,4.7
2019-04-30T05:49:50.010Z,4.6
2019-04-30T05:50:51.709Z,4.6
2019-04-30T05:51:54.982Z,4.7
2019-04-30T05:52:50.049Z,4.7
2019-04-30T05:53:50.086Z,4.7
2019-04-30T05:54:50.080Z,4.7
2019-04-30T05:55:50.077Z,4.6
2019-04-30T05:56:50.138Z,4.8
2019-04-30T05:57:55.736Z,4.8
2019-04-30T05:58:50.114Z,4.7
2019-04-30T05:59:50.159Z,4.7
2019-04-30T06:00:50.174Z,4.7
2019-04-30T06:01:50.733Z,4.7
2019-04-30T06:03:05.668Z,4.8
2019-04-30T06:03:50.174Z,4.8
2019-04-30T06:04:50.176Z,4.8
2019-04-30T06:05:50.189Z,4.8
2019-04-30T06:06:50.274Z,4.8
2019-04-30T06:07:51.925Z,4.9
2019-04-30T06:08:50.195Z,4.9
2019-04-30T06:09:50.219Z,4.9
2019-04-30T06:10:51.746Z,4.9
2019-04-30T06:11:50.193Z,4.8
2019-04-30T06:12:50.194Z,4.8
2019-04-30T06:13:50.276Z,5
2019-04-30T06:14:51.812Z,5.1
2019-04-30T06:15:50.361Z,5.2
2019-04-30T06:16:51.713Z,5.3
2019-04-30T06:17:59.512Z,5.3
2019-04-30T06:18:50.574Z,5.2
2019-04-30T06:19:51.395Z,5.2
2019-04-30T06:20:50.664Z,5.3
2019-04-30T06:21:50.700Z,5.4
2019-04-30T06:22:52.146Z,5.2
2019-04-30T06:23:50.866Z,5.2
2019-04-30T06:24:50.841Z,5.2
2019-04-30T06:25:56.981Z,5.1
2019-04-30T06:26:53.224Z,5.2
2019-04-30T06:27:50.943Z,5.6
2019-04-30T06:28:50.976Z,5.6
2019-04-30T06:29:52.123Z,5.9
2019-04-30T06:30:51.111Z,5.8
2019-04-30T06:31:51.169Z,6
2019-04-30T06:32:51.211Z,6.2
2019-04-30T06:33:51.287Z,6.1
2019-04-30T06:34:51.268Z,6.3
2019-04-30T06:35:51.324Z,6.4
2019-04-30T06:36:53.830Z,6.5
2019-04-30T06:37:51.439Z,6.7
2019-04-30T06:38:51.430Z,6.6
2019-04-30T06:39:51.454Z,6.2
2019-04-30T06:40:51.526Z,5.9
2019-04-30T06:41:51.595Z,5.5
2019-04-30T06:42:51.604Z,5.3
2019-04-30T06:43:51.656Z,5.1
2019-04-30T06:44:51.718Z,5.3
2019-04-30T06:45:51.695Z,5.7
2019-04-30T06:46:51.702Z,5.9
2019-04-30T06:47:51.736Z,5.8
2019-04-30T06:48:51.781Z,5.6
2019-04-30T06:49:51.839Z,6.1
2019-04-30T06:50:51.866Z,6.2
2019-04-30T06:51:51.907Z,5.8
2019-04-30T06:52:56.720Z,5.5
2019-04-30T06:53:51.998Z,6
2019-04-30T06:54:52.038Z,5
2019-04-30T06:55:52.100Z,5.3
2019-04-30T06:56:52.137Z,5.8
2019-04-30T06:57:52.143Z,6.1
2019-04-30T06:58:52.625Z,5.9
2019-04-30T06:59:52.135Z,5.9
2019-04-30T07:00:52.203Z,5.9
2019-04-30T07:01:52.236Z,5.7
2019-04-30T07:02:52.242Z,5.7
2019-04-30T07:03:52.277Z,5.7
2019-04-30T07:04:52.282Z,5.8
2019-04-30T07:05:52.293Z,6
2019-04-30T07:06:52.321Z,6.4
2019-04-30T07:07:53.255Z,6.6
2019-04-30T07:08:55.800Z,5.6
2019-04-30T07:09:56.870Z,5.2
2019-04-30T07:10:55.504Z,5.6
2019-04-30T07:11:52.526Z,6.3
2019-04-30T07:12:52.525Z,6
2019-04-30T07:13:52.631Z,5.3
2019-04-30T07:14:52.722Z,5.6
2019-04-30T07:15:52.659Z,5.9
2019-04-30T07:16:52.666Z,5.8
2019-04-30T07:17:52.695Z,6.2
2019-04-30T07:18:52.778Z,6.4
2019-04-30T07:19:56.476Z,5.8
2019-04-30T07:20:52.801Z,6.2
2019-04-30T07:21:52.813Z,6.1
2019-04-30T07:23:00.113Z,6.2
2019-04-30T07:23:52.860Z,5.9
2019-04-30T07:24:52.922Z,6.6
2019-04-30T07:25:52.909Z,6.6
2019-04-30T07:26:54.601Z,6.1
2019-04-30T07:27:52.971Z,5.9
2019-04-30T07:28:55.190Z,5.4
2019-04-30T07:29:53.001Z,5.5
2019-04-30T07:31:07.524Z,5.8
2019-04-30T07:31:53.035Z,5.1
2019-04-30T07:32:53.037Z,5.5
2019-04-30T07:33:54.028Z,5.8
2019-04-30T07:34:53.055Z,5.7
2019-04-30T07:35:53.129Z,5.4
2019-04-30T07:37:10.660Z,5.6
2019-04-30T07:37:54.456Z,6.6
2019-04-30T07:38:56.318Z,6.2
2019-04-30T07:39:53.114Z,5.8
2019-04-30T07:40:53.149Z,5.4
2019-04-30T07:41:53.164Z,6.1
2019-04-30T07:42:53.237Z,5.7
2019-04-30T07:43:53.186Z,5.9
2019-04-30T07:44:53.175Z,5.5
2019-04-30T07:45:53.247Z,5.7
2019-04-30T07:46:53.218Z,6.1
2019-04-30T07:47:53.191Z,5.9
2019-04-30T07:48:53.185Z,5.9
2019-04-30T07:49:55.855Z,7
2019-04-30T07:50:53.247Z,5.9
2019-04-30T07:51:53.865Z,6.1
2019-04-30T07:53:02.376Z,5.5
2019-04-30T07:53:53.222Z,4.9
2019-04-30T07:54:53.251Z,6.2
2019-04-30T07:55:53.250Z,5.4
2019-04-30T07:56:53.259Z,5.8
2019-04-30T07:57:53.239Z,6.1
2019-04-30T07:58:53.254Z,6
2019-04-30T07:59:53.271Z,6.6
2019-04-30T08:00:56.100Z,7.2
2019-04-30T08:02:03.922Z,6.5
2019-04-30T08:02:53.442Z,6.7
2019-04-30T08:03:53.710Z,5.7
2019-04-30T08:04:53.520Z,5.5
2019-04-30T08:05:55.882Z,6.2
2019-04-30T08:06:53.625Z,5.4
2019-04-30T08:07:53.706Z,5.4
2019-04-30T08:08:57.401Z,5.8
2019-04-30T08:09:53.711Z,4.9
2019-04-30T08:10:53.770Z,5.1
2019-04-30T08:11:53.821Z,5
2019-04-30T08:12:54.110Z,6.1
2019-04-30T08:13:53.897Z,4.8
2019-04-30T08:14:53.955Z,5.3
2019-04-30T08:15:54.009Z,6.2
2019-04-30T08:16:54.074Z,5.7
2019-04-30T08:18:02.545Z,5.8
2019-04-30T08:18:54.134Z,5.5
2019-04-30T08:19:54.193Z,5.5
2019-04-30T08:20:54.248Z,5.4
2019-04-30T08:21:54.292Z,5.1
2019-04-30T08:22:54.385Z,5
2019-04-30T08:23:54.410Z,6.2
2019-04-30T08:24:54.423Z,6.3
2019-04-30T08:25:54.541Z,4.9
2019-04-30T08:26:54.503Z,4.6
2019-04-30T08:27:54.493Z,5.4
2019-04-30T08:28:54.540Z,4.8
2019-04-30T08:29:54.671Z,5.1
2019-04-30T08:30:54.633Z,4.4
2019-04-30T08:31:54.701Z,4.4
2019-04-30T08:32:54.815Z,5
2019-04-30T08:33:54.718Z,5.2
2019-04-30T08:34:54.735Z,5.2
2019-04-30T08:35:54.788Z,5.7
2019-04-30T08:36:54.932Z,5.2
2019-04-30T08:37:54.887Z,5.4
2019-04-30T08:38:55.069Z,5.6
2019-04-30T08:39:55.008Z,5.4
2019-04-30T08:40:58.022Z,5.9
2019-04-30T08:41:55.057Z,6.1
2019-04-30T08:42:55.112Z,6.3
2019-04-30T08:43:55.135Z,6.4
2019-04-30T08:44:55.213Z,6.6
2019-04-30T08:45:55.210Z,6
2019-04-30T08:46:55.250Z,5.8
2019-04-30T08:47:55.311Z,6.3
2019-04-30T08:48:55.361Z,6.9
2019-04-30T08:49:55.411Z,6.2
2019-04-30T08:50:55.398Z,6.6
2019-04-30T08:51:55.468Z,6.1
2019-04-30T08:52:55.440Z,6.4
2019-04-30T08:53:55.460Z,6.9
2019-04-30T08:54:55.510Z,5.1
2019-04-30T08:55:55.554Z,5.9
2019-04-30T08:56:55.623Z,6.2
2019-04-30T08:58:07.435Z,6
2019-04-30T08:58:55.623Z,6.1
2019-04-30T08:59:55.666Z,6.4
2019-04-30T09:00:55.733Z,6.5
2019-04-30T09:01:55.715Z,6
2019-04-30T09:02:55.732Z,5.9
2019-04-30T09:03:55.778Z,5.4
2019-04-30T09:04:55.826Z,5.7
2019-04-30T09:05:55.849Z,5.4
2019-04-30T09:06:55.871Z,5
2019-04-30T09:07:55.909Z,6
2019-04-30T09:08:55.968Z,5.4
2019-04-30T09:09:55.976Z,6.1
2019-04-30T09:10:55.983Z,5.2
2019-04-30T09:11:56.045Z,5.5
2019-04-30T09:12:56.040Z,5.5
2019-04-30T09:13:56.080Z,5.6
2019-04-30T09:14:56.087Z,5.6
2019-04-30T09:15:56.140Z,5.7
2019-04-30T09:16:56.156Z,5.7
2019-04-30T09:18:01.535Z,5.4
2019-04-30T09:18:56.214Z,4.9
2019-04-30T09:19:56.247Z,5.7
2019-04-30T09:21:04.066Z,6.1
2019-04-30T09:21:56.286Z,5.7
2019-04-30T09:22:56.307Z,5.7
2019-04-30T09:23:56.332Z,4.8
2019-04-30T09:24:56.335Z,5.1
2019-04-30T09:25:58.391Z,6.1
2019-04-30T09:26:56.359Z,5.8
2019-04-30T09:27:56.407Z,6.1
2019-04-30T09:28:56.419Z,6.3
2019-04-30T09:29:56.440Z,5.6
2019-04-30T09:30:58.442Z,6.1
2019-04-30T09:31:56.469Z,5.5
2019-04-30T09:32:56.485Z,6.2
2019-04-30T09:33:57.951Z,6.5
2019-04-30T09:34:58.523Z,5.9
2019-04-30T09:35:56.596Z,5.7
2019-04-30T09:36:56.501Z,5.3
2019-04-30T09:37:59.546Z,6.1
2019-04-30T09:38:58.713Z,7
2019-04-30T09:39:56.521Z,6.5
2019-04-30T09:40:56.544Z,6.2
2019-04-30T09:41:56.560Z,6.1
2019-04-30T09:42:56.562Z,5.8
2019-04-30T09:43:56.541Z,5.9
2019-04-30T09:44:57.729Z,5.7
2019-04-30T09:45:56.568Z,5.6
2019-04-30T09:46:56.569Z,6.1
2019-04-30T09:47:56.602Z,6.1
2019-04-30T09:48:56.662Z,5.8
2019-04-30T09:49:56.886Z,6
2019-04-30T09:50:57.119Z,5.6
2019-04-30T09:51:59.082Z,4.6
2019-04-30T09:52:56.909Z,5.2
2019-04-30T09:54:00.355Z,5.1
2019-04-30T09:54:56.938Z,5.5
2019-04-30T09:55:56.958Z,5.8
2019-04-30T09:56:58.857Z,5.6
2019-04-30T09:57:58.670Z,5.3
2019-04-30T09:58:59.030Z,5.2
2019-04-30T09:59:57.103Z,5.3
2019-04-30T10:00:59.184Z,5.7
2019-04-30T10:01:57.151Z,5.6
2019-04-30T10:02:59.279Z,5.4
2019-04-30T10:03:59.399Z,6.3
2019-04-30T10:04:57.665Z,5.5
2019-04-30T10:05:59.034Z,5.8
2019-04-30T10:06:59.412Z,5.8
2019-04-30T10:07:59.298Z,5.4
2019-04-30T10:08:59.406Z,6.1
2019-04-30T10:09:59.036Z,5.7
2019-04-30T10:10:58.769Z,5.8
2019-04-30T10:11:59.426Z,6.6
2019-04-30T10:12:59.222Z,6.7
2019-04-30T10:13:57.587Z,6.2
2019-04-30T10:14:59.238Z,6.1
2019-04-30T10:15:58.531Z,4.8
2019-04-30T10:16:59.511Z,4.7
2019-04-30T10:17:57.772Z,5.5
2019-04-30T10:18:59.185Z,6
2019-04-30T10:19:57.851Z,6.2
2019-04-30T10:20:58.843Z,5.6
2019-04-30T10:21:58.952Z,6.3
2019-04-30T10:22:59.606Z,5.7
2019-04-30T10:24:10.418Z,5.3
2019-04-30T10:24:59.631Z,5.8
2019-04-30T10:25:58.078Z,6
2019-04-30T10:26:58.076Z,6
2019-04-30T10:27:59.733Z,5.9
2019-04-30T10:28:58.121Z,6.3
2019-04-30T10:29:59.342Z,5.9
2019-04-30T10:30:58.214Z,6
2019-04-30T10:31:58.746Z,5.8
2019-04-30T10:32:59.551Z,5.8
2019-04-30T10:33:58.640Z,6.2
2019-04-30T10:34:58.342Z,6.3
2019-04-30T10:35:59.452Z,5.3
2019-04-30T10:36:59.256Z,5.3
2019-04-30T10:37:59.536Z,5.9
2019-04-30T10:38:59.483Z,5.4
2019-04-30T10:39:59.725Z,5.9
2019-04-30T10:40:58.755Z,6.1
2019-04-30T10:41:58.570Z,5.4
2019-04-30T10:42:58.763Z,5.2
2019-04-30T10:43:59.077Z,5.8
2019-04-30T10:45:00.223Z,5.3
2019-04-30T10:45:58.689Z,5.9
2019-04-30T10:46:59.308Z,4.9
2019-04-30T10:47:59.260Z,5.4
2019-04-30T10:48:58.764Z,5.5
2019-04-30T10:49:58.778Z,5.8
2019-04-30T10:50:59.309Z,5.2
2019-04-30T10:51:59.358Z,5.6
2019-04-30T10:52:59.131Z,4.9
2019-04-30T10:53:59.911Z,5.5
2019-04-30T10:54:59.512Z,6.3
2019-04-30T10:55:59.444Z,5.9
2019-04-30T10:56:59.200Z,5.9
2019-04-30T10:57:59.313Z,5.4
2019-04-30T10:58:58.950Z,5.7
2019-04-30T10:59:58.952Z,6.1
2019-04-30T11:00:59.481Z,5.5
2019-04-30T11:01:59.224Z,5.4
2019-04-30T11:02:59.309Z,5.4
2019-04-30T11:03:59.143Z,6.1
2019-04-30T11:04:59.047Z,5.9
2019-04-30T11:05:59.098Z,5.7
2019-04-30T11:07:00.482Z,6.2
2019-04-30T11:07:59.517Z,5.9
2019-04-30T11:08:59.184Z,6.7
2019-04-30T11:09:59.185Z,6.4
2019-04-30T11:10:59.195Z,5.8
2019-04-30T11:11:59.428Z,5.3
2019-04-30T11:12:59.319Z,6.3
2019-04-30T11:13:59.243Z,5.7
2019-04-30T11:14:59.254Z,6.9
2019-04-30T11:16:11.665Z,6.6
2019-04-30T11:16:59.832Z,5.5
2019-04-30T11:17:59.752Z,5.4
2019-04-30T11:18:59.525Z,6.1
2019-04-30T11:19:59.508Z,6
2019-04-30T11:20:59.735Z,6.1
2019-04-30T11:21:59.465Z,6.2
2019-04-30T11:22:59.428Z,6.4
2019-04-30T11:23:59.613Z,6.6
2019-04-30T11:25:06.665Z,6.4
2019-04-30T11:26:00.225Z,5.9
2019-04-30T11:27:00.327Z,5.7
2019-04-30T11:27:59.789Z,6
2019-04-30T11:28:59.548Z,6.1
2019-04-30T11:30:03.029Z,6.2
2019-04-30T11:30:59.599Z,5.5
2019-04-30T11:31:59.667Z,6.1
2019-04-30T11:32:59.715Z,5.8
2019-04-30T11:33:59.550Z,6
2019-04-30T11:34:59.595Z,5.8
2019-04-30T11:36:02.864Z,5.9
2019-04-30T11:36:59.711Z,7.1
2019-04-30T11:37:59.762Z,5.9
2019-04-30T11:38:59.813Z,6.2
2019-04-30T11:39:59.863Z,6
2019-04-30T11:40:59.918Z,5.9
2019-04-30T11:41:59.974Z,6.2
2019-04-30T11:43:00.004Z,6.3
2019-04-30T11:44:00.050Z,5.6
2019-04-30T11:45:00.076Z,6.1
2019-04-30T11:46:00.289Z,6.3
2019-04-30T11:47:00.108Z,6.4
2019-04-30T11:48:00.586Z,6.8
2019-04-30T11:49:00.230Z,6.3
2019-04-30T11:50:00.213Z,6
2019-04-30T11:51:00.220Z,5.7
2019-04-30T11:52:00.320Z,5.3
2019-04-30T11:53:14.105Z,5.8
2019-04-30T11:54:00.357Z,5.9
2019-04-30T11:55:00.356Z,5.3
2019-04-30T11:56:00.347Z,4.9
2019-04-30T11:57:00.391Z,5.7
2019-04-30T11:58:00.444Z,5.2
2019-04-30T11:59:00.521Z,5.3
2019-04-30T12:00:00.511Z,5.4
2019-04-30T12:01:00.563Z,5.4
2019-04-30T12:02:00.618Z,5.6
2019-04-30T12:03:00.641Z,5.4
2019-04-30T12:04:00.713Z,5.4
2019-04-30T12:05:00.745Z,5.3
2019-04-30T12:06:00.782Z,5.9
2019-04-30T12:07:00.840Z,5.6
2019-04-30T12:08:00.882Z,4.9
2019-04-30T12:09:00.929Z,4.8
2019-04-30T12:10:00.977Z,4.9
2019-04-30T12:11:01.022Z,4.7
2019-04-30T12:12:01.064Z,4.7
2019-04-30T12:13:03.605Z,4.9
2019-04-30T12:14:01.158Z,4.8
2019-04-30T12:15:02.791Z,5.2
2019-04-30T12:16:01.203Z,4.8
2019-04-30T12:17:01.243Z,5.5
2019-04-30T12:18:01.292Z,5.6
2019-04-30T12:19:01.312Z,5.5
2019-04-30T12:20:01.344Z,5.8
2019-04-30T12:21:01.373Z,5.8
2019-04-30T12:22:01.433Z,6.2
2019-04-30T12:23:01.490Z,5.3
2019-04-30T12:24:01.526Z,5.4
2019-04-30T12:25:03.140Z,5.8
2019-04-30T12:26:02.900Z,5.5
2019-04-30T12:27:01.636Z,5.9
2019-04-30T12:28:01.649Z,6.1
2019-04-30T12:29:01.703Z,5.7
2019-04-30T12:30:01.725Z,6
2019-04-30T12:31:01.751Z,5.7
2019-04-30T12:32:01.779Z,5.5
2019-04-30T12:33:01.811Z,5.6
2019-04-30T12:34:01.823Z,5.9
2019-04-30T12:35:01.876Z,4.7
2019-04-30T12:36:01.890Z,5.5
2019-04-30T12:37:01.937Z,5.7
2019-04-30T12:38:02.024Z,5.3
2019-04-30T12:39:02.000Z,5.4
2019-04-30T12:40:02.025Z,5.9
2019-04-30T12:41:02.040Z,5.3
2019-04-30T12:42:02.295Z,5.7
2019-04-30T12:43:02.103Z,5.6
2019-04-30T12:44:02.146Z,6
2019-04-30T12:45:02.186Z,5.5
2019-04-30T12:46:05.347Z,5.7
2019-04-30T12:47:04.692Z,6
2019-04-30T12:48:02.234Z,5.2
2019-04-30T12:49:02.281Z,6.2
2019-04-30T12:50:02.275Z,6.1
2019-04-30T12:51:02.293Z,5.9
2019-04-30T12:52:02.330Z,6.1
2019-04-30T12:53:02.364Z,6.8
2019-04-30T12:54:02.402Z,5.9
2019-04-30T12:55:14.399Z,5.7
2019-04-30T12:56:02.491Z,6.2
2019-04-30T12:57:02.428Z,5.9
2019-04-30T12:58:02.426Z,5.1
2019-04-30T12:59:02.444Z,5.6
2019-04-30T13:00:02.480Z,6.1
2019-04-30T13:01:02.489Z,5.7
2019-04-30T13:02:02.523Z,5.8
2019-04-30T13:03:02.520Z,6.9
2019-04-30T13:04:02.547Z,5.5
2019-04-30T13:05:02.545Z,6.1
2019-04-30T13:06:03.325Z,6.5
2019-04-30T13:07:03.211Z,6.1
2019-04-30T13:08:03.112Z,5.8
2019-04-30T13:09:03.080Z,5.4
2019-04-30T13:10:03.237Z,5
2019-04-30T13:11:02.933Z,4.4
2019-04-30T13:12:03.070Z,4.9
2019-04-30T13:13:03.066Z,4.8
2019-04-30T13:14:03.030Z,5.1
2019-04-30T13:15:02.618Z,6.3
2019-04-30T13:16:02.627Z,5.4
2019-04-30T13:17:02.632Z,5.1
2019-04-30T13:18:02.617Z,5.1
2019-04-30T13:19:02.661Z,5.5
2019-04-30T13:20:02.756Z,4.9
2019-04-30T13:21:02.829Z,4.7
2019-04-30T13:22:02.829Z,5.1
2019-04-30T13:23:02.879Z,5.3
2019-04-30T13:24:02.952Z,5.6
2019-04-30T13:25:03.056Z,5.4
2019-04-30T13:26:02.978Z,5.3
2019-04-30T13:27:02.999Z,5.6
2019-04-30T13:28:04.190Z,5.4
2019-04-30T13:29:03.128Z,4.6
2019-04-30T13:30:03.430Z,5.2
2019-04-30T13:31:03.306Z,5.3
2019-04-30T13:32:03.261Z,4.6
2019-04-30T13:33:03.446Z,5
2019-04-30T13:34:03.365Z,4.7
2019-04-30T13:35:03.412Z,4.6
2019-04-30T13:36:03.438Z,4.8
2019-04-30T13:37:03.484Z,4.6
2019-04-30T13:38:03.489Z,4.9
2019-04-30T13:39:03.518Z,4.9
2019-04-30T13:40:03.524Z,5.5
2019-04-30T13:41:03.576Z,5.6
2019-04-30T13:42:14.973Z,5
2019-04-30T13:43:03.655Z,5.1
2019-04-30T13:44:03.717Z,4.9
2019-04-30T13:45:03.726Z,4.6
2019-04-30T13:46:03.743Z,5.5
2019-04-30T13:47:03.789Z,5.4
2019-04-30T13:48:03.865Z,5
2019-04-30T13:49:03.916Z,4.5
2019-04-30T13:50:03.938Z,4.6
2019-04-30T13:51:03.973Z,5.2